Alpine, Texas
Current Conditions -  °F | °C
As of 2:35 PM on Friday 21 Nov 2014 (Local Time) from KE38 Reporting Station
Clear Clear  
Wind Chill: 72°   Ceiling: Unl
Heat Index: 72°   Visibility: 10mi
Dew Point: 29°   Wind: 15mph
Humidity: 20%   Direction: 200°SSW
Pressure: 30.01"   Gusts: 22mph
Location:  30.36°N, 103.66°W
Report Text: KE38 212035Z AUTO 20013G19KT 10SM CLR 22/M02 A3001 RMK AO2 T02211019
Loading
Personal Weather Stations






























Interactive Weather Map New forecast layout! Learn more

10-Day Weather Forecast

Advertisements
Track Severe Weather on mobile